Time;durP1;ratioP1;P1;durP2;ratioP2;P2;SDS_P1;SDS_P2;PMS_P1;PMS_P2;Temp;Humidity;BMP_temperature;BMP_pressure;BME280_temperature;BME280_humidity;BME280_pressure;Samples;Min_cycle;Max_cycle;Signal;HPM_P1;HPM_P2
2023/07/07 00:01:01;;;;;;;5.70;5.40;;;15.30;62.20;;;;;;6211667;28;20235;-81
2023/07/07 00:04:04;;;;;;;6.00;5.60;;;15.30;62.30;;;;;;6203767;28;20328;-82
2023/07/07 00:07:08;;;;;;;5.80;5.50;;;15.20;62.40;;;;;;6218898;28;20235;-82
2023/07/07 00:10:11;;;;;;;5.93;5.60;;;15.20;62.50;;;;;;6218540;28;20239;-84
2023/07/07 00:13:17;;;;;;;5.97;5.47;;;15.20;62.60;;;;;;6243902;28;20234;-82
2023/07/07 00:16:20;;;;;;;5.30;5.03;;;15.10;62.70;;;;;;6223491;28;20246;-82
2023/07/07 00:19:24;;;;;;;5.93;5.57;;;15.10;62.90;;;;;;6206414;28;20228;-83
2023/07/07 00:22:27;;;;;;;5.47;5.17;;;15.10;63.30;;;;;;6225154;28;20259;-83
2023/07/07 00:25:31;;;;;;;6.07;5.67;;;15.00;63.50;;;;;;6219251;28;20240;-82
2023/07/07 00:28:36;;;;;;;5.87;5.47;;;15.00;63.60;;;;;;6208470;28;20302;-82
2023/07/07 00:31:39;;;;;;;4.97;4.77;;;15.00;63.30;;;;;;6218278;28;20250;-83
2023/07/07 00:34:43;;;;;;;6.40;6.00;;;15.00;63.30;;;;;;6218825;28;20231;-83
2023/07/07 00:37:46;;;;;;;5.53;5.23;;;15.00;63.70;;;;;;6210027;28;20243;-84
2023/07/07 00:40:52;;;;;;;6.10;5.70;;;14.90;63.70;;;;;;6220894;28;20306;-83
2023/07/07 00:44:06;;;;;;;6.47;6.07;;;14.90;63.80;;;;;;6216173;28;20239;-83
2023/07/07 00:47:09;;;;;;;5.87;5.57;;;14.90;64.00;;;;;;6238777;28;20238;-82
2023/07/07 00:50:16;;;;;;;6.43;6.03;;;14.90;64.40;;;;;;6239008;28;20729;-81
2023/07/07 00:53:20;;;;;;;7.23;6.67;;;14.90;64.60;;;;;;6242119;28;20230;-83
2023/07/07 00:56:29;;;;;;;7.93;7.33;;;14.90;64.80;;;;;;6241104;28;20239;-81
2023/07/07 00:59:37;;;;;;;7.60;7.10;;;14.90;64.60;;;;;;6233847;28;20234;-83
2023/07/07 01:02:44;;;;;;;8.57;7.90;;;14.90;64.90;;;;;;6236103;28;20623;-82
2023/07/07 01:05:50;;;;;;;8.13;7.53;;;14.90;65.00;;;;;;6227708;28;20235;-83
2023/07/07 01:08:59;;;;;;;9.10;8.20;;;14.80;65.10;;;;;;6233252;28;20234;-82
2023/07/07 01:12:02;;;;;;;7.40;6.90;;;14.80;65.20;;;;;;6225389;28;20240;-82
2023/07/07 01:15:08;;;;;;;8.40;7.70;;;14.80;65.30;;;;;;6205318;28;20322;-84
2023/07/07 01:18:20;;;;;;;8.47;7.87;;;14.80;65.20;;;;;;6213735;28;20931;-83
2023/07/07 01:21:30;;;;;;;7.17;6.83;;;14.70;65.30;;;;;;6229794;28;20246;-81
2023/07/07 01:24:53;;;;;;;7.90;7.33;;;14.70;65.40;;;;;;6240144;28;20226;-84
2023/07/07 01:28:19;;;;;;;7.13;6.53;;;14.70;65.70;;;;;;6224751;28;20251;-81
2023/07/07 01:31:32;;;;;;;7.70;7.10;;;14.70;66.00;;;;;;6222822;28;20240;-83
2023/07/07 01:34:37;;;;;;;7.37;6.87;;;14.60;66.10;;;;;;6221296;28;20739;-82
2023/07/07 01:37:40;;;;;;;6.90;6.50;;;14.60;65.70;;;;;;6205352;28;20235;-83
2023/07/07 01:40:51;;;;;;;7.07;6.67;;;14.60;65.60;;;;;;6216757;28;20258;-82
2023/07/07 01:44:04;;;;;;;6.87;6.50;;;14.50;65.70;;;;;;6216511;28;20480;-82
2023/07/07 01:47:14;;;;;;;6.07;5.77;;;14.50;65.70;;;;;;6214838;28;20243;-81
2023/07/07 01:50:21;;;;;;;6.63;6.27;;;14.50;65.70;;;;;;6213305;28;20707;-83
2023/07/07 01:53:28;;;;;;;7.57;6.90;;;14.50;65.60;;;;;;6238573;28;20276;-82
2023/07/07 01:56:32;;;;;;;6.37;5.77;;;14.40;65.70;;;;;;6234830;28;20879;-82
2023/07/07 01:59:37;;;;;;;6.90;6.40;;;14.40;65.70;;;;;;6230401;28;20249;-83
2023/07/07 02:02:42;;;;;;;6.10;5.67;;;14.30;65.70;;;;;;6228725;28;20238;-82
2023/07/07 02:05:47;;;;;;;6.07;5.77;;;14.30;66.00;;;;;;6225976;28;20272;-83
2023/07/07 02:08:50;;;;;;;6.07;5.77;;;14.30;66.10;;;;;;6219773;28;20227;-83
2023/07/07 02:11:54;;;;;;;6.10;5.80;;;14.30;66.20;;;;;;6232300;28;20263;-81
2023/07/07 02:14:57;;;;;;;5.70;5.40;;;14.20;66.20;;;;;;6212454;28;20261;-84
2023/07/07 02:18:02;;;;;;;6.27;5.87;;;14.20;66.20;;;;;;6229543;28;20313;-82
2023/07/07 02:21:06;;;;;;;6.20;5.90;;;14.20;66.50;;;;;;6226545;28;20239;-81
2023/07/07 02:24:09;;;;;;;6.43;5.93;;;14.20;66.60;;;;;;6206118;28;20235;-82
2023/07/07 02:27:16;;;;;;;5.70;5.40;;;14.10;66.70;;;;;;6222237;28;20236;-83
2023/07/07 02:30:20;;;;;;;5.80;5.60;;;14.10;66.70;;;;;;6191565;28;20236;-82
2023/07/07 02:33:30;;;;;;;6.07;5.77;;;14.10;66.90;;;;;;6214197;28;20278;-82
2023/07/07 02:36:36;;;;;;;5.93;5.60;;;14.10;67.00;;;;;;6216444;28;20909;-83
2023/07/07 02:39:46;;;;;;;5.60;5.30;;;14.10;67.20;;;;;;6209943;28;20781;-82
2023/07/07 02:42:50;;;;;;;5.67;5.47;;;14.00;67.10;;;;;;6215147;28;20240;-82
2023/07/07 02:45:53;;;;;;;5.73;5.43;;;14.00;67.10;;;;;;6216277;28;20243;-83
2023/07/07 02:48:58;;;;;;;5.93;5.37;;;14.00;67.20;;;;;;6217175;28;20266;-84
2023/07/07 02:52:02;;;;;;;6.00;5.70;;;14.00;67.10;;;;;;6207009;28;20250;-82
2023/07/07 02:55:05;;;;;;;5.87;5.43;;;14.00;67.20;;;;;;6221748;28;20235;-83
2023/07/07 02:58:10;;;;;;;5.30;5.00;;;14.00;67.10;;;;;;6222498;28;20738;-83
2023/07/07 03:01:15;;;;;;;5.73;5.43;;;14.00;67.20;;;;;;6222181;28;20235;-83
2023/07/07 03:04:24;;;;;;;5.80;5.50;;;14.00;67.30;;;;;;6218441;28;20241;-81
2023/07/07 03:07:28;;;;;;;5.67;5.47;;;14.00;67.20;;;;;;6217443;28;20242;-83
2023/07/07 03:10:32;;;;;;;5.40;5.10;;;14.00;67.30;;;;;;6213977;28;20845;-84
2023/07/07 03:13:36;;;;;;;6.23;5.93;;;14.00;67.40;;;;;;6204618;28;20243;-84
2023/07/07 03:16:47;;;;;;;6.10;5.70;;;14.00;67.50;;;;;;6200444;28;20239;-81
2023/07/07 03:19:51;;;;;;;5.63;5.43;;;14.00;67.50;;;;;;6225926;28;20234;-83
2023/07/07 03:22:55;;;;;;;6.13;5.73;;;14.00;67.60;;;;;;6242414;28;20242;-82
2023/07/07 03:26:07;;;;;;;5.43;5.23;;;14.00;67.70;;;;;;6246891;28;20227;-81
2023/07/07 03:29:11;;;;;;;5.77;5.37;;;14.00;67.70;;;;;;6245457;28;20235;-81
2023/07/07 03:32:14;;;;;;;5.83;5.53;;;14.10;67.80;;;;;;6231004;28;20841;-78
2023/07/07 03:35:18;;;;;;;5.83;5.63;;;14.10;67.80;;;;;;6227853;28;20318;-82
2023/07/07 03:38:21;;;;;;;5.47;5.17;;;14.10;67.80;;;;;;6218185;28;20742;-79
2023/07/07 03:41:27;;;;;;;5.00;4.77;;;14.10;67.90;;;;;;6209023;28;20751;-80
2023/07/07 03:44:30;;;;;;;5.83;5.53;;;14.10;67.80;;;;;;6230882;28;20239;-80
2023/07/07 03:47:33;;;;;;;6.13;5.83;;;14.20;67.90;;;;;;6208182;28;20314;-81
2023/07/07 03:50:38;;;;;;;5.07;4.97;;;14.20;67.90;;;;;;6201624;28;20267;-81
2023/07/07 03:53:42;;;;;;;5.23;5.03;;;14.20;68.00;;;;;;6199673;28;20870;-80
2023/07/07 03:56:46;;;;;;;6.40;5.93;;;14.30;68.00;;;;;;6194170;28;20243;-80
2023/07/07 03:59:49;;;;;;;5.63;5.33;;;14.30;68.20;;;;;;6206398;28;20362;-78
2023/07/07 04:02:52;;;;;;;6.07;5.67;;;14.30;68.20;;;;;;6215094;28;20238;-79
2023/07/07 04:05:57;;;;;;;5.67;5.23;;;14.40;68.30;;;;;;6210844;28;20239;-82
2023/07/07 04:09:01;;;;;;;5.50;5.30;;;14.40;68.30;;;;;;6214829;28;20227;-81
2023/07/07 04:12:07;;;;;;;5.73;5.23;;;14.40;68.30;;;;;;6219573;28;20239;-80
2023/07/07 04:15:12;;;;;;;5.60;5.40;;;14.50;68.30;;;;;;6221759;28;20759;-80
2023/07/07 04:18:16;;;;;;;6.07;5.73;;;14.50;68.40;;;;;;6230399;28;20235;-80
2023/07/07 04:21:22;;;;;;;5.70;5.40;;;14.60;68.30;;;;;;6235356;28;20238;-75
2023/07/07 04:24:27;;;;;;;5.70;5.40;;;14.70;68.20;;;;;;6246065;28;20234;-79
2023/07/07 04:27:30;;;;;;;6.70;6.20;;;14.70;68.20;;;;;;6260093;28;20243;-80
2023/07/07 04:30:34;;;;;;;5.70;5.50;;;14.80;68.30;;;;;;6264535;28;20238;-80
2023/07/07 04:33:37;;;;;;;5.53;5.27;;;14.90;68.20;;;;;;6266208;28;20235;-79
2023/07/07 04:36:43;;;;;;;5.90;5.50;;;15.00;68.00;;;;;;6254655;28;20251;-78
2023/07/07 04:39:50;;;;;;;5.80;5.40;;;15.00;67.80;;;;;;6246393;28;20242;-80
2023/07/07 04:42:53;;;;;;;5.53;5.30;;;15.10;67.60;;;;;;6253870;28;20231;-78
2023/07/07 04:45:56;;;;;;;5.27;5.10;;;15.20;67.50;;;;;;6259375;28;20227;-78
2023/07/07 04:49:06;;;;;;;5.37;5.07;;;15.40;66.90;;;;;;6262169;28;20215;-79
2023/07/07 04:52:10;;;;;;;5.20;4.73;;;15.50;65.70;;;;;;6256978;28;20259;-75
2023/07/07 04:55:14;;;;;;;4.77;4.47;;;15.60;64.10;;;;;;6258285;28;20235;-78
2023/07/07 04:58:17;;;;;;;5.30;5.10;;;15.80;63.70;;;;;;6262407;28;20241;-80
2023/07/07 05:01:22;;;;;;;4.97;4.67;;;16.00;63.40;;;;;;6245256;28;20246;-81
2023/07/07 05:04:26;;;;;;;4.57;4.43;;;16.20;62.50;;;;;;6245268;28;20238;-81
2023/07/07 05:07:31;;;;;;;8.40;5.50;;;16.50;62.70;;;;;;6232823;28;20708;-79
2023/07/07 05:10:34;;;;;;;4.83;4.53;;;16.80;61.80;;;;;;6220046;28;20243;-80
2023/07/07 05:13:37;;;;;;;5.00;4.70;;;17.10;61.30;;;;;;6212660;28;20230;-80
2023/07/07 05:16:40;;;;;;;6.50;4.80;;;17.50;61.10;;;;;;6208793;28;20244;-82
2023/07/07 05:19:44;;;;;;;5.37;4.87;;;17.80;60.90;;;;;;6202990;28;20239;-83
2023/07/07 05:22:48;;;;;;;4.60;4.40;;;18.20;60.10;;;;;;6211702;28;20270;-82
2023/07/07 05:25:52;;;;;;;5.57;4.67;;;18.60;59.90;;;;;;6203550;28;20231;-78
2023/07/07 05:28:57;;;;;;;5.37;4.80;;;18.90;59.00;;;;;;6203748;28;20227;-81
2023/07/07 05:32:00;;;;;;;5.90;5.43;;;19.30;58.30;;;;;;6214775;28;20242;-81
2023/07/07 05:35:09;;;;;;;5.47;4.97;;;19.50;56.40;;;;;;6219707;28;20232;-81
2023/07/07 05:38:16;;;;;;;5.03;4.73;;;20.00;55.90;;;;;;6213182;28;20238;-84
2023/07/07 05:41:19;;;;;;;5.37;4.77;;;20.30;55.10;;;;;;6212814;28;20254;-82
2023/07/07 05:44:22;;;;;;;5.23;4.70;;;20.60;54.70;;;;;;6216694;28;21016;-79
2023/07/07 05:47:25;;;;;;;4.47;4.13;;;20.90;54.40;;;;;;6205526;28;20243;-81
2023/07/07 05:50:28;;;;;;;4.67;4.43;;;21.10;53.80;;;;;;6210432;28;20999;-77
2023/07/07 05:53:36;;;;;;;4.83;4.50;;;21.40;53.20;;;;;;6208085;28;20247;-80
2023/07/07 05:56:39;;;;;;;4.37;4.07;;;21.70;52.60;;;;;;6208325;28;20254;-78
2023/07/07 05:59:43;;;;;;;4.57;4.23;;;21.90;52.20;;;;;;6229034;28;20300;-78
2023/07/07 06:02:46;;;;;;;8.70;4.10;;;22.20;51.50;;;;;;6215577;28;20231;-80
2023/07/07 06:05:50;;;;;;;4.03;3.73;;;22.50;51.20;;;;;;6206348;28;20234;-81
2023/07/07 06:08:54;;;;;;;5.70;4.70;;;22.80;51.10;;;;;;6213581;28;20416;-81
2023/07/07 06:11:57;;;;;;;6.20;4.60;;;23.00;50.00;;;;;;6241654;28;20262;-80
2023/07/07 06:15:01;;;;;;;4.47;4.07;;;23.00;49.20;;;;;;6232220;28;20356;-79
2023/07/07 06:18:04;;;;;;;4.57;3.77;;;23.30;49.40;;;;;;6216098;28;20747;-80
2023/07/07 06:21:08;;;;;;;5.53;4.07;;;23.60;48.00;;;;;;6215040;28;20577;-79
2023/07/07 06:24:13;;;;;;;5.00;4.10;;;23.70;48.40;;;;;;6233256;28;20607;-78
2023/07/07 06:27:16;;;;;;;5.47;4.13;;;24.00;48.70;;;;;;6213518;28;20251;-79
2023/07/07 06:30:19;;;;;;;5.10;3.87;;;24.00;46.60;;;;;;6241105;28;20242;-79
2023/07/07 06:33:23;;;;;;;4.00;3.77;;;24.20;47.50;;;;;;6220577;28;20644;-79
2023/07/07 06:39:47;;;;;;;4.80;4.40;;;24.60;46.80;;;;;;6253164;28;20371;-78
2023/07/07 06:42:51;;;;;;;5.03;4.63;;;24.40;46.30;;;;;;6226266;28;20246;-78
2023/07/07 06:45:57;;;;;;;4.30;3.97;;;24.60;46.80;;;;;;6222267;28;20726;-80
2023/07/07 06:49:02;;;;;;;6.70;3.30;;;24.90;45.70;;;;;;6215066;28;20270;-79
2023/07/07 06:52:06;;;;;;;4.63;3.70;;;25.20;46.30;;;;;;6219361;28;20266;-79
2023/07/07 06:55:11;;;;;;;3.63;3.37;;;25.40;46.70;;;;;;6224048;28;20249;-81
2023/07/07 06:58:15;;;;;;;4.27;3.83;;;25.50;44.50;;;;;;6217689;28;20692;-78
2023/07/07 07:01:18;;;;;;;3.20;3.00;;;25.60;45.10;;;;;;6218456;28;20254;-77
2023/07/07 07:04:22;;;;;;;3.00;2.90;;;25.80;45.20;;;;;;6205403;28;20712;-79
2023/07/07 07:07:25;;;;;;;3.30;3.10;;;25.70;44.20;;;;;;6221197;28;20803;-81
2023/07/07 07:10:30;;;;;;;3.20;2.97;;;25.80;45.50;;;;;;6238218;28;20266;-79
2023/07/07 07:13:33;;;;;;;3.20;2.90;;;25.60;43.00;;;;;;6245279;28;20246;-80
2023/07/07 07:16:36;;;;;;;3.20;3.00;;;25.60;44.10;;;;;;6247491;28;20239;-79
2023/07/07 07:19:40;;;;;;;3.40;3.30;;;25.50;43.60;;;;;;6247147;28;20241;-85
2023/07/07 07:22:43;;;;;;;3.60;3.43;;;25.50;44.90;;;;;;6251378;28;20238;-79
2023/07/07 07:25:48;;;;;;;4.87;2.60;;;25.60;45.70;;;;;;6246880;28;20241;-79
2023/07/07 07:28:52;;;;;;;2.90;2.80;;;25.10;44.60;;;;;;6238885;28;20239;-79
2023/07/07 07:31:56;;;;;;;3.17;2.77;;;25.00;43.70;;;;;;6243094;28;20246;-79
2023/07/07 07:34:59;;;;;;;3.47;2.70;;;25.10;44.70;;;;;;6248315;28;20245;-80
2023/07/07 07:38:02;;;;;;;2.93;2.73;;;25.00;43.90;;;;;;6241233;28;20234;-78
2023/07/07 07:41:07;;;;;;;3.00;2.90;;;24.80;44.00;;;;;;6240886;28;20238;-79
2023/07/07 07:44:10;;;;;;;2.77;2.67;;;24.70;44.70;;;;;;6250274;28;20238;-79
2023/07/07 07:47:14;;;;;;;4.33;2.93;;;24.70;45.10;;;;;;6249416;28;20325;-80
2023/07/07 07:50:17;;;;;;;3.50;3.17;;;24.60;45.10;;;;;;6242931;28;20227;-81
2023/07/07 07:53:22;;;;;;;3.77;3.47;;;24.60;43.60;;;;;;6223452;28;20243;-80
2023/07/07 07:56:27;;;;;;;3.07;2.87;;;24.40;43.90;;;;;;6233337;28;20268;-81
2023/07/07 07:59:30;;;;;;;3.10;3.00;;;24.30;45.70;;;;;;6252138;28;20247;-82
2023/07/07 08:02:34;;;;;;;3.50;3.30;;;24.30;45.00;;;;;;6252707;28;20253;-81
2023/07/07 08:05:38;;;;;;;2.93;2.70;;;24.40;45.00;;;;;;6261446;28;20255;-81
2023/07/07 08:08:41;;;;;;;3.23;3.13;;;24.30;44.50;;;;;;6276091;28;20249;-81
2023/07/07 08:11:59;;;;;;;2.50;2.50;;;24.20;44.10;;;;;;6287523;28;20246;-81
2023/07/07 08:15:03;;;;;;;2.70;2.60;;;24.20;44.80;;;;;;6250755;28;20231;-79
2023/07/07 08:18:06;;;;;;;4.10;3.50;;;24.00;45.50;;;;;;6248466;28;20222;-78
2023/07/07 08:21:10;;;;;;;3.23;3.07;;;24.20;45.10;;;;;;6252937;28;20234;-77
2023/07/07 08:24:13;;;;;;;3.10;2.80;;;24.20;44.90;;;;;;6252375;28;20246;-75
2023/07/07 08:27:18;;;;;;;3.30;3.00;;;24.20;45.30;;;;;;6255788;28;20279;-75
2023/07/07 08:30:24;;;;;;;5.00;3.20;;;24.20;44.60;;;;;;6250021;28;20293;-75
2023/07/07 08:33:27;;;;;;;2.63;2.53;;;24.20;45.40;;;;;;6256769;28;20227;-75
2023/07/07 08:36:31;;;;;;;2.83;2.73;;;24.20;45.80;;;;;;6236997;28;20269;-77
2023/07/07 08:39:34;;;;;;;3.20;3.00;;;24.20;44.30;;;;;;6251917;28;20252;-74
2023/07/07 08:42:41;;;;;;;4.40;3.17;;;24.40;44.20;;;;;;6263246;28;20223;-76
2023/07/07 08:45:56;;;;;;;2.97;2.87;;;24.50;44.70;;;;;;6250991;28;20224;-77
2023/07/07 08:49:08;;;;;;;2.87;2.80;;;24.40;43.40;;;;;;6266165;28;20241;-76
2023/07/07 08:52:25;;;;;;;2.70;2.60;;;24.40;44.10;;;;;;6271235;28;20228;-77
2023/07/07 08:55:43;;;;;;;2.60;2.50;;;24.20;44.70;;;;;;6249218;28;20214;-77
2023/07/07 08:59:02;;;;;;;2.83;2.20;;;24.60;43.70;;;;;;6261494;28;20249;-77
2023/07/07 09:02:14;;;;;;;2.20;2.20;;;24.80;43.70;;;;;;6247009;28;20227;-79
2023/07/07 09:05:32;;;;;;;2.40;2.30;;;25.00;43.00;;;;;;6274928;28;20227;-79
2023/07/07 09:08:44;;;;;;;2.17;2.17;;;25.30;43.40;;;;;;6258005;28;20242;-78
2023/07/07 09:12:05;;;;;;;4.10;2.63;;;25.30;42.30;;;;;;6224734;28;20593;-77
2023/07/07 09:15:17;;;;;;;3.60;2.93;;;25.60;42.80;;;;;;6221030;28;20290;-79
2023/07/07 09:18:24;;;;;;;4.03;2.37;;;25.60;42.90;;;;;;6207387;28;20314;-80
2023/07/07 09:21:34;;;;;;;2.87;2.77;;;25.60;41.70;;;;;;6218560;28;20246;-79
2023/07/07 09:24:40;;;;;;;2.80;2.70;;;25.60;43.40;;;;;;6217401;28;20731;-78
2023/07/07 09:27:46;;;;;;;2.97;2.87;;;25.80;42.70;;;;;;6228680;28;20242;-77
2023/07/07 09:30:57;;;;;;;2.77;2.67;;;26.00;41.80;;;;;;6227545;28;20262;-80
2023/07/07 09:34:03;;;;;;;3.03;2.87;;;26.00;41.20;;;;;;6224775;28;20232;-79
2023/07/07 09:37:20;;;;;;;3.13;2.93;;;26.10;41.00;;;;;;6208444;28;20963;-78
2023/07/07 09:40:31;;;;;;;2.77;2.67;;;26.10;42.20;;;;;;6213330;28;20316;-77
2023/07/07 09:43:43;;;;;;;2.47;2.37;;;25.80;42.10;;;;;;6214535;28;20716;-77
2023/07/07 09:47:07;;;;;;;4.77;3.00;;;25.50;42.30;;;;;;6207546;28;20243;-78
2023/07/07 09:50:16;;;;;;;3.03;2.63;;;25.60;43.00;;;;;;6216578;28;20739;-77
2023/07/07 09:53:24;;;;;;;2.47;2.37;;;25.60;43.50;;;;;;6217345;28;20717;-78
2023/07/07 09:56:46;;;;;;;4.30;2.90;;;25.70;43.20;;;;;;6206678;28;20235;-78
2023/07/07 09:59:54;;;;;;;2.67;2.57;;;25.80;42.10;;;;;;6197091;28;20236;-78
2023/07/07 10:03:00;;;;;;;2.83;2.73;;;26.00;42.10;;;;;;6204920;28;20239;-78
2023/07/07 10:06:07;;;;;;;4.00;2.50;;;25.80;42.30;;;;;;6207253;28;20338;-77
2023/07/07 10:09:12;;;;;;;2.70;2.63;;;25.80;41.70;;;;;;6213087;28;20259;-77
2023/07/07 10:12:17;;;;;;;2.00;2.00;;;25.90;42.40;;;;;;6214493;28;20239;-77
2023/07/07 10:15:48;;;;;;;2.67;2.47;;;25.80;43.00;;;;;;6210975;28;20255;-76
2023/07/07 10:18:53;;;;;;;2.70;2.60;;;25.80;40.60;;;;;;6212779;28;20278;-76
2023/07/07 10:21:56;;;;;;;2.47;2.37;;;25.80;40.20;;;;;;6208054;28;20244;-78
2023/07/07 10:24:59;;;;;;;3.00;2.80;;;25.80;40.90;;;;;;6206185;28;20265;-77
2023/07/07 10:28:03;;;;;;;2.40;2.40;;;25.80;41.50;;;;;;6200227;28;20375;-77
2023/07/07 10:31:06;;;;;;;2.03;2.03;;;26.00;41.80;;;;;;6193699;28;20297;-77
2023/07/07 10:34:23;;;;;;;2.30;2.30;;;26.10;41.30;;;;;;6201858;28;20238;-77
2023/07/07 10:37:31;;;;;;;3.20;2.50;;;26.20;41.10;;;;;;6200092;28;20239;-79
2023/07/07 10:40:35;;;;;;;2.40;2.20;;;26.40;40.50;;;;;;6204258;28;20741;-79
2023/07/07 10:43:38;;;;;;;2.90;2.80;;;26.30;41.00;;;;;;6217946;28;20309;-78
2023/07/07 10:46:42;;;;;;;2.63;2.43;;;25.80;42.10;;;;;;6200785;28;20248;-78
2023/07/07 10:49:47;;;;;;;2.73;2.63;;;25.80;40.50;;;;;;6213691;28;20235;-78
2023/07/07 10:53:13;;;;;;;2.03;1.93;;;25.80;40.10;;;;;;6236196;28;20249;-79
2023/07/07 10:56:27;;;;;;;2.70;2.50;;;25.90;40.30;;;;;;6207114;28;20254;-77
2023/07/07 10:59:42;;;;;;;2.90;2.70;;;26.00;40.20;;;;;;6213356;28;20240;-82
2023/07/07 11:03:04;;;;;;;5.93;5.27;;;26.10;40.90;;;;;;6233355;28;20258;-81
2023/07/07 11:06:21;;;;;;;3.13;2.87;;;26.20;40.80;;;;;;6222784;28;20235;-83
2023/07/07 11:09:35;;;;;;;2.33;2.33;;;26.20;40.20;;;;;;6220798;28;20711;-81
2023/07/07 11:12:44;;;;;;;3.57;2.80;;;26.20;40.00;;;;;;6216260;28;20674;-81
2023/07/07 11:15:54;;;;;;;2.80;2.60;;;26.20;40.80;;;;;;6250375;28;20239;-81
2023/07/07 11:19:12;;;;;;;2.93;2.73;;;26.40;40.00;;;;;;6241897;28;20265;-81
2023/07/07 11:22:29;;;;;;;3.37;2.20;;;26.40;40.20;;;;;;6243965;28;20227;-81
2023/07/07 11:25:42;;;;;;;3.10;2.90;;;26.50;40.60;;;;;;6238603;28;22116;-82
2023/07/07 11:28:55;;;;;;;4.17;2.60;;;26.40;39.60;;;;;;6217262;28;20858;-79
2023/07/07 11:32:11;;;;;;;2.17;2.03;;;26.50;40.10;;;;;;6219343;28;20243;-81
2023/07/07 11:35:28;;;;;;;2.33;2.33;;;26.50;40.60;;;;;;6216598;28;20238;-80
2023/07/07 11:38:55;;;;;;;3.80;3.53;;;26.60;40.80;;;;;;6213258;28;20240;-81
2023/07/07 11:42:16;;;;;;;2.60;2.40;;;26.70;40.10;;;;;;6214078;28;20239;-81
2023/07/07 11:45:26;;;;;;;2.43;2.33;;;26.70;40.00;;;;;;6239203;28;20681;-79
2023/07/07 11:48:40;;;;;;;2.67;2.50;;;26.60;39.60;;;;;;6230165;28;20231;-80
2023/07/07 11:51:52;;;;;;;2.40;2.37;;;26.60;40.20;;;;;;6238861;28;20273;-79
2023/07/07 11:55:25;;;;;;;2.77;2.57;;;26.60;39.70;;;;;;6225067;28;20602;-83
2023/07/07 11:58:38;;;;;;;2.60;2.50;;;26.50;40.10;;;;;;6203276;28;20239;-80
2023/07/07 12:01:48;;;;;;;2.53;2.47;;;26.40;40.60;;;;;;6245728;28;20238;-82
2023/07/07 12:04:56;;;;;;;3.10;2.90;;;26.60;39.80;;;;;;6243854;28;20231;-82
2023/07/07 12:08:06;;;;;;;2.93;2.83;;;26.70;39.80;;;;;;6238612;28;20231;-81
2023/07/07 12:11:13;;;;;;;2.73;2.63;;;26.70;39.60;;;;;;6231056;28;20658;-78
2023/07/07 12:14:40;;;;;;;2.73;2.63;;;26.70;40.30;;;;;;6232923;28;20248;-83
2023/07/07 12:17:50;;;;;;;2.80;2.80;;;26.90;40.80;;;;;;6243279;28;20314;-85
2023/07/07 12:20:59;;;;;;;4.60;2.60;;;27.00;39.90;;;;;;6243561;28;20234;-83
2023/07/07 12:24:08;;;;;;;5.90;2.60;;;26.80;40.30;;;;;;6238616;28;20239;-82
2023/07/07 12:27:20;;;;;;;3.07;2.97;;;26.90;41.00;;;;;;6240836;28;20242;-85
2023/07/07 12:30:26;;;;;;;2.83;2.60;;;27.00;40.50;;;;;;6237262;28;20239;-84
2023/07/07 12:33:40;;;;;;;2.37;2.37;;;27.00;40.80;;;;;;6239599;28;20833;-81
2023/07/07 12:36:45;;;;;;;2.60;2.50;;;27.10;40.00;;;;;;6234447;28;20231;-83
2023/07/07 12:39:58;;;;;;;2.90;2.60;;;27.10;40.10;;;;;;6231158;28;20944;-82
2023/07/07 12:43:24;;;;;;;3.03;2.90;;;27.20;40.30;;;;;;6237895;28;20252;-82
2023/07/07 12:46:29;;;;;;;2.63;2.63;;;27.30;39.80;;;;;;6212982;28;20239;-84
2023/07/07 12:49:36;;;;;;;3.03;2.93;;;27.30;39.60;;;;;;6211439;28;20267;-82
2023/07/07 12:52:43;;;;;;;3.90;2.47;;;27.40;40.40;;;;;;6233125;28;20235;-79
2023/07/07 12:55:59;;;;;;;2.83;2.73;;;27.50;39.70;;;;;;6221529;28;20242;-78
2023/07/07 12:59:36;;;;;;;3.70;2.90;;;27.70;39.20;;;;;;6208007;28;20243;-80
2023/07/07 13:02:56;;;;;;;2.90;2.90;;;27.70;39.80;;;;;;6215323;28;20251;-82
2023/07/07 13:06:00;;;;;;;2.93;2.73;;;27.80;38.90;;;;;;6238357;28;20310;-81
2023/07/07 13:09:20;;;;;;;3.20;2.90;;;27.80;39.10;;;;;;6246192;28;20351;-81
2023/07/07 13:12:43;;;;;;;2.80;2.70;;;27.80;38.60;;;;;;6217716;28;20306;-80
2023/07/07 13:15:47;;;;;;;2.97;2.77;;;27.70;39.90;;;;;;6251005;28;20231;-83
2023/07/07 13:18:51;;;;;;;2.50;2.40;;;27.70;39.50;;;;;;6251332;28;20227;-79
2023/07/07 13:21:56;;;;;;;3.23;2.93;;;27.80;39.60;;;;;;6269050;28;20227;-83
2023/07/07 13:25:04;;;;;;;3.10;2.80;;;28.00;39.10;;;;;;6266148;28;20468;-81
2023/07/07 13:28:13;;;;;;;3.33;3.07;;;28.10;38.50;;;;;;6269731;28;20218;-79
2023/07/07 13:31:17;;;;;;;7.13;2.70;;;28.10;39.00;;;;;;6259870;28;20239;-78
2023/07/07 13:34:21;;;;;;;4.13;3.00;;;28.10;38.40;;;;;;6240209;28;20243;-79
2023/07/07 13:37:25;;;;;;;3.03;2.88;;;28.10;38.40;;;;;;6243374;28;20245;-80
2023/07/07 13:40:29;;;;;;;2.50;2.30;;;27.90;38.30;;;;;;6244260;28;20223;-80
2023/07/07 13:43:35;;;;;;;3.03;2.80;;;27.60;39.10;;;;;;6238464;28;20219;-81
2023/07/07 13:46:39;;;;;;;2.80;2.60;;;27.50;38.80;;;;;;6240362;28;20295;-80
2023/07/07 13:49:45;;;;;;;2.83;2.73;;;27.40;38.90;;;;;;6243682;28;20287;-80
2023/07/07 13:52:54;;;;;;;2.60;2.60;;;27.40;38.30;;;;;;6244849;28;20223;-78
2023/07/07 13:55:58;;;;;;;2.83;2.73;;;27.30;38.90;;;;;;6247407;28;20219;-79
2023/07/07 13:59:02;;;;;;;2.83;2.83;;;27.20;39.50;;;;;;6236001;28;20231;-79
2023/07/07 14:02:14;;;;;;;3.30;3.20;;;27.20;40.10;;;;;;6235111;28;20220;-80
2023/07/07 14:05:20;;;;;;;2.80;2.70;;;27.20;39.50;;;;;;6241597;28;20241;-81
2023/07/07 14:08:27;;;;;;;3.20;2.70;;;27.30;40.00;;;;;;6258435;28;20268;-80
2023/07/07 14:11:30;;;;;;;3.90;3.23;;;27.40;40.10;;;;;;6251108;28;20230;-79
2023/07/07 14:14:33;;;;;;;3.30;3.10;;;27.50;39.20;;;;;;6267415;28;20251;-79
2023/07/07 14:17:40;;;;;;;3.20;3.10;;;27.70;39.80;;;;;;6256697;28;20223;-82
2023/07/07 14:20:57;;;;;;;2.90;2.80;;;27.70;39.50;;;;;;6275271;28;20290;-78
2023/07/07 14:24:03;;;;;;;4.53;3.00;;;28.00;38.50;;;;;;6283008;28;20244;-81
2023/07/07 14:27:13;;;;;;;3.20;3.10;;;28.00;38.50;;;;;;6274826;28;20215;-80
2023/07/07 14:30:19;;;;;;;2.70;2.60;;;28.00;38.70;;;;;;6266937;28;20231;-81
2023/07/07 14:33:29;;;;;;;3.07;2.87;;;28.10;38.70;;;;;;6259546;28;20273;-80
2023/07/07 14:36:40;;;;;;;3.20;2.90;;;28.10;39.20;;;;;;6251185;28;20227;-80
2023/07/07 14:39:48;;;;;;;2.93;2.83;;;28.10;39.30;;;;;;6229800;28;20235;-80
2023/07/07 14:42:52;;;;;;;3.00;2.90;;;28.10;39.30;;;;;;6242849;28;20251;-82
2023/07/07 14:45:58;;;;;;;2.90;2.80;;;28.10;38.40;;;;;;6229714;28;20250;-79
2023/07/07 14:49:16;;;;;;;3.13;2.93;;;28.10;38.40;;;;;;6233121;28;20235;-80
2023/07/07 14:52:31;;;;;;;3.40;3.27;;;28.10;38.70;;;;;;6241394;28;20231;-80
2023/07/07 14:55:35;;;;;;;3.10;2.90;;;28.20;38.80;;;;;;6244054;28;20774;-79
2023/07/07 14:58:41;;;;;;;2.93;2.83;;;28.10;38.60;;;;;;6241573;28;20658;-78
2023/07/07 15:01:55;;;;;;;3.13;2.93;;;28.10;38.70;;;;;;6222424;28;20259;-80
2023/07/07 15:05:25;;;;;;;3.10;3.03;;;28.30;39.10;;;;;;6224783;28;20239;-82
2023/07/07 15:08:30;;;;;;;3.10;3.00;;;28.30;38.70;;;;;;6226622;28;20228;-81
2023/07/07 15:11:34;;;;;;;3.23;3.03;;;28.30;38.60;;;;;;6222757;28;20234;-82
2023/07/07 15:14:38;;;;;;;2.73;2.50;;;28.30;38.50;;;;;;6218011;28;20231;-79
2023/07/07 15:17:41;;;;;;;3.23;3.03;;;28.30;39.30;;;;;;6210958;28;20235;-78
2023/07/07 15:20:54;;;;;;;3.30;3.10;;;28.30;39.10;;;;;;6210899;28;20887;-79
2023/07/07 15:23:58;;;;;;;2.93;2.83;;;28.30;38.70;;;;;;6216092;28;20755;-80
2023/07/07 15:27:01;;;;;;;2.93;2.83;;;28.30;39.00;;;;;;6202826;28;20247;-80
2023/07/07 15:30:10;;;;;;;3.35;3.15;;;28.30;38.60;;;;;;6201719;28;20243;-80
2023/07/07 15:33:16;;;;;;;3.10;3.00;;;28.20;39.20;;;;;;6203277;28;20239;-81
2023/07/07 15:36:21;;;;;;;3.15;3.05;;;28.30;38.30;;;;;;6217493;28;20261;-84
2023/07/07 15:39:25;;;;;;;2.90;2.80;;;28.10;38.60;;;;;;6218173;28;20286;-80
2023/07/07 15:42:32;;;;;;;2.73;2.67;;;28.10;38.80;;;;;;6205948;28;20254;-81
2023/07/07 15:45:35;;;;;;;2.87;2.87;;;28.10;39.10;;;;;;6233214;28;20297;-80
2023/07/07 15:48:55;;;;;;;3.17;2.90;;;28.10;39.10;;;;;;6220492;28;20238;-80
2023/07/07 15:52:00;;;;;;;2.83;2.63;;;28.30;38.60;;;;;;6231988;28;20374;-79
2023/07/07 15:55:03;;;;;;;2.77;2.77;;;28.30;38.40;;;;;;6216504;28;20289;-78
2023/07/07 15:58:10;;;;;;;3.30;3.20;;;28.30;39.10;;;;;;6204557;28;20326;-77
2023/07/07 16:01:13;;;;;;;3.10;3.00;;;28.10;38.80;;;;;;6211183;28;20263;-79
2023/07/07 16:04:16;;;;;;;3.20;3.00;;;28.10;38.70;;;;;;6210035;28;20239;-77
2023/07/07 16:07:21;;;;;;;3.92;3.72;;;28.30;39.00;;;;;;6201550;28;20243;-79
2023/07/07 16:10:24;;;;;;;3.20;3.10;;;28.20;38.70;;;;;;6203858;28;20243;-77
2023/07/07 16:13:27;;;;;;;8.18;3.30;;;28.20;39.20;;;;;;6205692;28;20746;-78
2023/07/07 16:16:32;;;;;;;3.30;3.17;;;28.10;38.70;;;;;;6209494;28;20330;-77
2023/07/07 16:19:36;;;;;;;3.38;3.38;;;28.10;39.20;;;;;;6211310;28;20859;-79